Time;durP1;ratioP1;P1;durP2;ratioP2;P2;SDS_P1;SDS_P2;PMS_P1;PMS_P2;Temp;Humidity;BMP_temperature;BMP_pressure;BME280_temperature;BME280_humidity;BME280_pressure;Samples;Min_cycle;Max_cycle;Signal;HPM_P1;HPM_P2
2021/10/27 00:01:28;;;;;;;5.60;3.03;;;;;;;6.41;88.10;97190.00;5015248;28;20206;-71
2021/10/27 00:03:55;;;;;;;2.77;2.37;;;;;;;6.54;87.72;97188.00;5019259;28;20205;-71
2021/10/27 00:06:22;;;;;;;2.13;1.77;;;;;;;6.43;88.82;97188.09;5017976;28;20222;-70
2021/10/27 00:08:50;;;;;;;2.73;1.43;;;;;;;6.48;88.01;97187.69;5019097;28;20210;-71
2021/10/27 00:11:16;;;;;;;2.27;1.87;;;;;;;6.64;88.79;97180.19;5018772;28;20283;-71
2021/10/27 00:13:43;;;;;;;2.10;1.67;;;;;;;6.63;86.54;97189.00;5019063;28;20202;-71
2021/10/27 00:16:11;;;;;;;2.47;1.70;;;;;;;6.90;86.14;97192.75;5017702;28;20229;-71
2021/10/27 00:18:37;;;;;;;1.77;1.63;;;;;;;6.57;87.34;97195.59;5018558;28;20208;-71
2021/10/27 00:21:04;;;;;;;2.40;1.30;;;;;;;6.60;86.13;97189.28;5018863;28;20717;-71
2021/10/27 00:23:31;;;;;;;2.23;1.93;;;;;;;6.46;87.59;97192.22;5018602;28;20209;-71
2021/10/27 00:25:57;;;;;;;3.20;2.00;;;;;;;6.62;86.26;97193.44;5017953;28;21179;-71
2021/10/27 00:28:23;;;;;;;5.87;2.33;;;;;;;6.56;87.22;97191.31;5018668;28;20201;-71
2021/10/27 00:30:50;;;;;;;5.33;2.50;;;;;;;6.56;88.12;97193.94;5019229;28;20206;-71
2021/10/27 00:33:18;;;;;;;2.67;2.13;;;;;;;6.71;89.38;97192.66;5018357;28;20202;-71
2021/10/27 00:35:44;;;;;;;1.43;1.33;;;;;;;6.21;89.01;97198.69;5017798;28;20205;-71
2021/10/27 00:38:11;;;;;;;4.13;1.10;;;;;;;6.49;87.36;97192.81;5018188;28;20257;-71
2021/10/27 00:40:37;;;;;;;1.33;1.23;;;;;;;6.57;88.50;97203.47;5018475;28;20218;-71
2021/10/27 00:43:04;;;;;;;3.90;1.67;;;;;;;6.72;87.81;97204.75;5017740;28;20519;-71
2021/10/27 00:45:30;;;;;;;1.27;1.17;;;;;;;6.73;88.34;97195.94;5016893;28;20205;-71
2021/10/27 00:47:57;;;;;;;1.23;1.13;;;;;;;6.53;88.79;97194.22;5016943;28;20231;-71
2021/10/27 00:50:25;;;;;;;2.37;1.70;;;;;;;6.92;88.12;97196.03;5017771;28;20216;-71
2021/10/27 00:52:52;;;;;;;5.73;2.13;;;;;;;6.75;87.79;97199.28;5017287;28;20693;-71
2021/10/27 00:55:19;;;;;;;7.17;1.50;;;;;;;6.82;88.59;97200.41;5017865;28;20206;-71
2021/10/27 00:57:46;;;;;;;7.83;3.83;;;;;;;6.93;89.99;97206.38;5016226;28;20229;-71
2021/10/27 01:00:14;;;;;;;3.20;2.90;;;;;;;7.14;89.03;97201.09;5018075;28;20229;-71
2021/10/27 01:02:41;;;;;;;3.23;2.07;;;;;;;7.07;90.38;97202.59;5013745;28;20202;-71
2021/10/27 01:05:08;;;;;;;2.77;2.07;;;;;;;7.28;89.68;97199.75;5016999;28;20583;-71
2021/10/27 01:07:35;;;;;;;3.00;1.87;;;;;;;7.42;90.29;97194.16;5016158;28;20393;-71
2021/10/27 01:10:02;;;;;;;2.67;1.37;;;;;;;7.31;89.82;97209.16;5017707;28;20202;-71
2021/10/27 01:12:28;;;;;;;6.80;2.83;;;;;;;7.20;90.59;97201.38;5017479;28;20208;-71
2021/10/27 01:14:55;;;;;;;6.50;2.50;;;;;;;7.20;90.90;97195.31;5016879;28;20208;-71
2021/10/27 01:17:21;;;;;;;2.63;1.90;;;;;;;6.96;90.88;97193.03;5016118;28;20594;-71
2021/10/27 01:19:51;;;;;;;2.90;2.33;;;;;;;7.33;91.84;97181.00;5016814;28;20600;-71
2021/10/27 01:22:20;;;;;;;6.67;1.77;;;;;;;7.19;91.96;97188.41;5016938;28;20209;-71
2021/10/27 01:24:47;;;;;;;7.40;2.93;;;;;;;7.20;91.20;97182.22;5016995;28;20209;-71
2021/10/27 01:27:14;;;;;;;7.93;2.10;;;;;;;7.38;91.30;97179.66;5016152;28;20561;-71
2021/10/27 01:29:41;;;;;;;3.57;2.00;;;;;;;7.37;92.85;97187.66;5016354;28;20201;-71
2021/10/27 01:32:08;;;;;;;8.53;2.47;;;;;;;7.60;92.89;97187.28;5017050;28;20528;-71
2021/10/27 01:34:35;;;;;;;7.23;2.60;;;;;;;7.46;94.77;97194.72;5016543;28;20205;-71
2021/10/27 01:37:05;;;;;;;12.37;2.57;;;;;;;7.58;95.94;97189.19;5015537;28;20496;-70
2021/10/27 01:39:31;;;;;;;38.67;3.23;;;;;;;7.26;97.22;97191.19;5017046;28;20511;-70
2021/10/27 01:41:58;;;;;;;3.63;2.33;;;;;;;7.53;95.37;97187.94;5017513;28;20209;-71
2021/10/27 01:44:24;;;;;;;2.20;1.80;;;;;;;7.36;95.71;97181.56;5016205;28;20213;-71
2021/10/27 01:46:51;;;;;;;3.40;2.20;;;;;;;7.48;95.86;97179.66;5015422;28;20606;-71
2021/10/27 01:49:17;;;;;;;3.13;2.57;;;;;;;7.55;96.11;97181.59;5017116;28;20198;-71
2021/10/27 01:51:44;;;;;;;4.17;2.27;;;;;;;7.61;96.23;97174.97;5016803;28;20206;-71
2021/10/27 01:54:12;;;;;;;2.93;1.80;;;;;;;7.82;96.68;97170.47;5015434;28;20198;-71
2021/10/27 01:56:38;;;;;;;8.70;2.13;;;;;;;7.71;95.48;97173.19;5016125;28;20244;-71
2021/10/27 01:59:05;;;;;;;2.30;2.10;;;;;;;7.62;96.66;97166.16;5016249;28;20197;-71
2021/10/27 02:01:32;;;;;;;4.73;1.93;;;;;;;7.56;97.18;97178.03;5013179;28;20237;-71
2021/10/27 02:03:59;;;;;;;4.70;2.97;;;;;;;7.76;96.89;97166.56;5016753;28;20205;-71
2021/10/27 02:06:26;;;;;;;6.07;2.67;;;;;;;7.70;97.16;97171.53;5016026;28;20218;-71
2021/10/27 02:08:52;;;;;;;4.70;3.17;;;;;;;7.76;96.71;97173.63;5016078;28;20888;-71
2021/10/27 02:11:21;;;;;;;6.57;2.73;;;;;;;7.98;97.19;97161.03;5016858;28;20198;-71
2021/10/27 02:13:47;;;;;;;5.27;2.47;;;;;;;7.82;97.27;97173.91;5016655;28;20348;-71
2021/10/27 02:16:14;;;;;;;6.83;3.43;;;;;;;7.77;97.47;97165.59;5015456;28;20229;-71
2021/10/27 02:18:40;;;;;;;6.30;4.80;;;;;;;7.68;98.15;97166.44;5016495;28;20221;-71
2021/10/27 02:21:07;;;;;;;11.77;2.50;;;;;;;7.69;98.40;97162.84;5016156;28;20728;-71
2021/10/27 02:23:33;;;;;;;8.13;3.47;;;;;;;7.77;98.43;97167.41;5016267;28;20472;-71
2021/10/27 02:26:00;;;;;;;8.97;2.90;;;;;;;7.86;98.05;97171.84;5015271;28;20221;-71
2021/10/27 02:28:28;;;;;;;3.47;2.30;;;;;;;8.14;97.78;97166.59;5015808;28;20453;-71
2021/10/27 02:30:55;;;;;;;7.17;2.70;;;;;;;7.81;97.53;97168.78;5015744;28;20197;-71
2021/10/27 02:33:21;;;;;;;3.67;2.43;;;;;;;7.69;98.03;97173.34;5016547;28;20224;-71
2021/10/27 02:35:48;;;;;;;4.13;2.67;;;;;;;7.69;98.25;97173.34;5013753;28;20210;-71
2021/10/27 02:38:15;;;;;;;4.10;1.57;;;;;;;7.68;96.33;97171.69;5016291;28;21162;-71
2021/10/27 02:40:41;;;;;;;7.27;3.40;;;;;;;7.62;95.85;97176.63;5016726;28;20765;-71
2021/10/27 02:43:08;;;;;;;4.00;2.23;;;;;;;7.66;94.25;97162.28;5016616;28;20294;-71
2021/10/27 02:45:36;;;;;;;2.53;1.60;;;;;;;7.56;96.29;97170.16;5015502;28;20217;-71
2021/10/27 02:48:02;;;;;;;5.07;2.70;;;;;;;7.19;96.44;97167.44;5016856;28;20198;-71
2021/10/27 02:50:29;;;;;;;5.27;1.97;;;;;;;7.25;95.97;97172.16;5016884;28;20202;-71
2021/10/27 02:52:55;;;;;;;4.40;3.20;;;;;;;7.31;95.06;97173.28;5017200;28;21078;-71
2021/10/27 02:55:22;;;;;;;2.40;1.67;;;;;;;7.57;94.91;97171.78;5016219;28;20686;-71
2021/10/27 02:57:48;;;;;;;2.27;1.70;;;;;;;7.39;95.19;97170.78;5013193;28;20230;-71
2021/10/27 03:00:15;;;;;;;4.87;2.67;;;;;;;7.36;95.74;97175.50;5016630;28;20230;-71
2021/10/27 03:02:43;;;;;;;2.50;2.13;;;;;;;7.38;95.53;97170.94;5013345;28;20942;-71
2021/10/27 03:05:09;;;;;;;2.77;2.27;;;;;;;7.24;95.61;97167.88;5016180;28;20213;-71
2021/10/27 03:07:36;;;;;;;6.33;3.90;;;;;;;7.35;96.01;97172.03;5017658;28;20221;-71
2021/10/27 03:10:04;;;;;;;3.40;2.07;;;;;;;7.46;95.94;97171.94;5020451;28;20202;-71
2021/10/27 03:12:30;;;;;;;2.33;1.73;;;;;;;7.38;95.86;97179.66;5019989;28;20205;-71
2021/10/27 03:14:57;;;;;;;1.57;1.47;;;;;;;7.29;95.65;97179.59;5020263;28;20213;-71
2021/10/27 03:17:23;;;;;;;1.20;1.13;;;;;;;7.14;96.57;97185.38;5018856;28;20221;-71
2021/10/27 03:19:52;;;;;;;2.23;2.03;;;;;;;7.16;97.21;97183.44;5019754;28;20202;-71
2021/10/27 03:22:19;;;;;;;2.60;1.70;;;;;;;6.99;97.59;97187.53;5019723;28;20198;-71
2021/10/27 03:24:46;;;;;;;2.60;1.87;;;;;;;7.22;97.92;97185.50;5020394;28;20221;-71
2021/10/27 03:27:13;;;;;;;4.10;2.90;;;;;;;7.20;97.00;97185.66;5018605;28;20226;-71
2021/10/27 03:29:40;;;;;;;2.57;1.60;;;;;;;7.40;96.97;97177.72;5019534;28;20197;-71
2021/10/27 03:32:07;;;;;;;1.90;1.63;;;;;;;7.39;96.72;97177.84;5019709;28;20209;-71
2021/10/27 03:34:34;;;;;;;3.53;2.13;;;;;;;7.22;97.12;97182.91;5019106;28;20697;-71
2021/10/27 03:37:02;;;;;;;3.77;1.97;;;;;;;7.42;96.85;97180.19;5019381;28;20226;-71
2021/10/27 03:39:29;;;;;;;2.47;2.00;;;;;;;7.29;96.67;97182.22;5019592;28;20209;-71
2021/10/27 03:41:56;;;;;;;3.87;1.80;;;;;;;7.32;96.43;97182.81;5019559;28;20232;-71
2021/10/27 03:44:22;;;;;;;3.20;2.03;;;;;;;7.28;97.84;97191.91;5019015;28;20205;-71
2021/10/27 03:46:50;;;;;;;3.70;1.93;;;;;;;7.13;97.84;97188.94;5018439;28;20248;-71
2021/10/27 03:49:17;;;;;;;2.33;1.57;;;;;;;7.36;98.37;97188.63;5019003;28;20283;-71
2021/10/27 03:51:43;;;;;;;3.13;1.93;;;;;;;7.35;97.19;97190.38;5019345;28;20206;-71
2021/10/27 03:54:11;;;;;;;3.80;2.40;;;;;;;7.74;96.71;97197.38;5019269;28;20348;-71
2021/10/27 03:56:38;;;;;;;3.23;2.20;;;;;;;7.25;97.97;97193.13;5018457;28;20221;-71
2021/10/27 03:59:04;;;;;;;2.57;1.80;;;;;;;7.35;97.03;97193.00;5019293;28;20591;-71
2021/10/27 04:01:31;;;;;;;5.03;1.97;;;;;;;7.14;97.72;97201.94;5016301;28;20222;-71
2021/10/27 04:03:58;;;;;;;1.73;1.63;;;;;;;7.40;97.44;97192.63;5018795;28;20202;-71
2021/10/27 04:06:25;;;;;;;3.07;2.30;;;;;;;7.44;96.73;97192.19;5018443;28;20280;-71
2021/10/27 04:08:51;;;;;;;4.50;1.57;;;;;;;7.43;97.46;97193.19;5019486;28;20209;-71
2021/10/27 04:11:19;;;;;;;2.43;1.77;;;;;;;7.72;97.10;97198.47;5019468;28;20206;-71
2021/10/27 04:13:46;;;;;;;3.37;2.03;;;;;;;7.35;97.80;97202.69;5018372;28;20221;-71
2021/10/27 04:16:12;;;;;;;2.00;1.80;;;;;;;7.35;97.32;97203.50;5018687;28;20221;-71
2021/10/27 04:18:39;;;;;;;5.73;2.60;;;;;;;7.34;98.31;97208.88;5017872;28;20198;-71
2021/10/27 04:21:06;;;;;;;3.03;2.37;;;;;;;7.12;99.15;97203.84;5019171;28;20229;-71
2021/10/27 04:23:32;;;;;;;5.30;1.87;;;;;;;7.22;98.99;97209.09;5018373;28;20198;-71
2021/10/27 04:25:59;;;;;;;2.40;1.60;;;;;;;7.00;99.84;97223.25;5018087;28;20232;-71
2021/10/27 04:28:27;;;;;;;4.27;1.83;;;;;;;7.10;99.98;97225.91;5018354;28;20213;-71
2021/10/27 04:30:53;;;;;;;6.03;2.67;;;;;;;7.18;99.92;97229.53;5017939;28;20202;-71
2021/10/27 04:33:23;;;;;;;5.40;2.33;;;;;;;7.42;100.00;97223.00;5018612;28;20217;-71
2021/10/27 04:35:52;;;;;;;1.67;1.30;;;;;;;7.31;99.77;97220.47;5017584;28;20231;-71
2021/10/27 04:38:20;;;;;;;2.97;2.67;;;;;;;7.46;99.86;97229.63;5018149;28;20202;-71
2021/10/27 04:40:47;;;;;;;2.93;2.40;;;;;;;6.98;100.00;97226.97;5018042;28;20235;-71
2021/10/27 04:43:13;;;;;;;2.77;2.17;;;;;;;7.18;100.00;97224.28;5018167;28;20674;-71
2021/10/27 04:45:41;;;;;;;5.40;3.37;;;;;;;7.58;99.68;97211.97;5017498;28;20202;-71
2021/10/27 04:48:09;;;;;;;4.50;2.17;;;;;;;7.47;99.66;97210.31;5017809;28;20202;-71
2021/10/27 04:50:36;;;;;;;6.80;3.77;;;;;;;7.57;99.84;97216.38;5017939;28;20202;-71
2021/10/27 04:53:02;;;;;;;6.53;3.40;;;;;;;7.52;99.79;97221.22;5018132;28;20199;-71
2021/10/27 04:55:29;;;;;;;5.17;2.40;;;;;;;7.27;100.00;97224.31;5017191;28;20297;-71
2021/10/27 04:57:55;;;;;;;3.33;2.57;;;;;;;7.31;99.94;97220.47;5017934;28;20226;-71
2021/10/27 05:00:22;;;;;;;5.37;2.90;;;;;;;7.46;100.00;97226.19;5017777;28;20232;-71
2021/10/27 05:02:50;;;;;;;5.87;3.17;;;;;;;7.85;99.16;97215.59;5014776;28;20221;-71
2021/10/27 05:05:18;;;;;;;5.57;3.60;;;;;;;7.44;99.48;97225.47;5017472;28;20658;-71
2021/10/27 05:07:44;;;;;;;3.90;2.53;;;;;;;7.41;97.92;97216.06;5017028;28;21109;-71
2021/10/27 05:10:11;;;;;;;6.63;2.77;;;;;;;7.42;98.77;97223.00;5017857;28;20293;-71
2021/10/27 05:12:37;;;;;;;2.30;1.57;;;;;;;7.41;98.37;97218.69;5018305;28;20194;-71
2021/10/27 05:15:04;;;;;;;4.80;3.03;;;;;;;7.43;98.05;97231.66;5017815;28;20206;-71
2021/10/27 05:17:31;;;;;;;3.77;2.83;;;;;;;7.12;99.74;97231.84;5017078;28;20229;-70
2021/10/27 05:19:59;;;;;;;6.60;2.93;;;;;;;7.39;100.00;97228.47;5017710;28;20206;-70
2021/10/27 05:22:26;;;;;;;3.53;2.60;;;;;;;7.17;100.00;97229.69;5018344;28;20221;-70
2021/10/27 05:24:52;;;;;;;2.20;1.70;;;;;;;7.19;100.00;97231.16;5017444;28;20218;-70
2021/10/27 05:27:19;;;;;;;3.53;2.30;;;;;;;7.16;100.00;97233.25;5016791;28;20222;-70
2021/10/27 05:29:46;;;;;;;6.63;3.17;;;;;;;7.30;100.00;97239.78;5017345;28;20212;-70
2021/10/27 05:32:12;;;;;;;3.63;2.43;;;;;;;7.46;98.97;97234.06;5018421;28;20198;-70
2021/10/27 05:34:42;;;;;;;3.90;2.03;;;;;;;7.45;99.84;97222.72;5017632;28;20213;-70
2021/10/27 05:37:10;;;;;;;4.30;2.87;;;;;;;7.51;100.00;97229.19;5016394;28;20217;-70
2021/10/27 05:39:37;;;;;;;5.33;2.50;;;;;;;7.48;100.00;97234.72;5017432;28;20209;-70
2021/10/27 05:42:05;;;;;;;5.13;2.70;;;;;;;7.45;99.29;97235.81;5016789;28;20222;-70
2021/10/27 05:44:31;;;;;;;5.20;3.33;;;;;;;7.33;99.06;97233.44;5017424;28;20201;-72
2021/10/27 05:46:58;;;;;;;3.43;2.37;;;;;;;7.19;99.23;97232.97;5016379;28;20752;-72
2021/10/27 05:49:30;;;;;;;6.10;2.83;;;;;;;7.17;100.00;97227.06;5016607;28;20678;-72
2021/10/27 05:52:00;;;;;;;5.70;3.37;;;;;;;7.18;100.00;97239.16;5016881;28;20201;-72
2021/10/27 05:57:12;;;;;;;12.10;3.73;;;;;;;7.04;100.00;97242.16;5016041;28;20333;-72
2021/10/27 05:59:39;;;;;;;3.73;2.73;;;;;;;6.84;100.00;97245.66;5017614;28;20841;-72
2021/10/27 06:02:05;;;;;;;5.00;2.70;;;;;;;7.10;100.00;97234.59;5014654;28;20225;-72
2021/10/27 06:04:33;;;;;;;3.17;2.27;;;;;;;6.83;100.00;97244.81;5017639;28;20559;-72
2021/10/27 06:06:59;;;;;;;4.40;2.67;;;;;;;7.04;99.77;97248.25;5015787;28;20226;-72
2021/10/27 06:09:27;;;;;;;5.13;3.07;;;;;;;7.13;99.79;97246.59;5017441;28;20213;-72
2021/10/27 06:11:58;;;;;;;1.67;1.33;;;;;;;6.90;99.61;97253.81;5017176;28;20674;-72
2021/10/27 06:14:24;;;;;;;2.30;2.00;;;;;;;7.00;99.55;97254.72;5016914;28;20577;-72
2021/10/27 06:16:51;;;;;;;7.67;3.33;;;;;;;7.03;99.65;97258.84;5015565;28;20231;-71
2021/10/27 06:19:17;;;;;;;3.27;2.40;;;;;;;7.12;99.05;97265.94;5017198;28;20193;-72
2021/10/27 06:21:44;;;;;;;5.13;3.10;;;;;;;7.17;99.72;97255.88;5017120;28;20225;-72
2021/10/27 06:24:10;;;;;;;4.37;3.37;;;;;;;7.08;99.83;97261.91;5017261;28;20206;-72
2021/10/27 06:26:38;;;;;;;3.13;2.83;;;;;;;7.24;100.00;97263.06;5015642;28;20228;-72
2021/10/27 06:29:07;;;;;;;11.77;3.63;;;;;;;7.11;100.00;97267.69;5017425;28;20878;-72
2021/10/27 06:31:37;;;;;;;4.63;3.13;;;;;;;7.43;100.00;97263.13;5017190;28;20420;-72
2021/10/27 06:34:18;;;;;;;4.77;3.20;;;;;;;7.40;99.75;97261.59;5016471;28;20271;-72
2021/10/27 06:36:59;;;;;;;6.63;3.40;;;;;;;7.48;99.83;97258.31;5016134;28;20225;-72
2021/10/27 06:45:54;;;;;;;10.83;2.47;;;;;;;7.34;100.00;97261.31;5016316;28;20225;-72
2021/10/27 06:47:47;;;;;;;9.47;4.13;;;;;;;7.83;99.67;97256.91;5019134;28;20279;-71
2021/10/27 06:50:14;;;;;;;7.07;3.90;;;;;;;7.83;98.48;97254.28;5020742;28;20245;-71
2021/10/27 06:52:40;;;;;;;6.90;3.10;;;;;;;7.95;99.00;97267.13;5019954;28;20213;-71
2021/10/27 06:55:08;;;;;;;3.17;2.13;;;;;;;7.51;99.08;97268.53;5020440;28;20259;-71
2021/10/27 06:57:36;;;;;;;5.77;3.23;;;;;;;7.36;99.77;97269.88;5018936;28;20222;-71
2021/10/27 07:00:13;;;;;;;7.97;2.90;;;;;;;7.75;98.67;97271.66;5020666;28;20206;-71
2021/10/27 07:05:50;;;;;;;6.00;3.13;;;;;;;7.83;98.65;97275.28;4983122;28;20198;-71
2021/10/27 07:16:47;;;;;;;3.87;3.00;;;;;;;7.76;98.56;97279.38;4938732;28;20228;-70
2021/10/27 07:19:13;;;;;;;7.40;3.83;;;;;;;7.61;99.29;97286.00;4999422;28;20212;-70
2021/10/27 07:21:40;;;;;;;6.97;3.70;;;;;;;7.81;98.62;97287.69;5019819;28;20324;-71
2021/10/27 07:24:07;;;;;;;12.80;5.70;;;;;;;7.94;98.61;97281.22;5019594;28;20217;-71
2021/10/27 07:26:36;;;;;;;14.70;3.70;;;;;;;7.97;98.92;97288.00;5018585;28;20632;-70
2021/10/27 07:29:04;;;;;;;7.63;3.70;;;;;;;8.21;98.59;97285.84;5017618;28;20631;-71
2021/10/27 07:31:31;;;;;;;10.00;3.53;;;;;;;8.09;97.87;97277.22;5018652;28;20213;-71
2021/10/27 07:34:03;;;;;;;8.40;3.50;;;;;;;8.31;97.08;97274.38;5019571;28;20228;-71
2021/10/27 07:39:50;;;;;;;10.23;3.10;;;;;;;8.27;98.10;97275.59;5017897;28;20713;-71
2021/10/27 07:42:16;;;;;;;5.63;2.90;;;;;;;8.12;97.22;97281.38;4998712;28;20213;-71
2021/10/27 07:44:44;;;;;;;5.13;3.20;;;;;;;8.48;97.16;97278.94;5018409;28;20206;-71
2021/10/27 07:47:11;;;;;;;8.63;3.70;;;;;;;8.10;97.96;97280.69;5017379;28;20237;-71
2021/10/27 07:49:39;;;;;;;6.60;2.70;;;;;;;7.93;98.38;97281.38;5019159;28;20205;-71
2021/10/27 07:52:07;;;;;;;6.17;2.63;;;;;;;8.26;99.02;97283.63;5018377;28;20216;-71
2021/10/27 07:54:34;;;;;;;4.60;3.03;;;;;;;8.16;98.66;97282.78;5018616;28;20205;-70
2021/10/27 07:57:01;;;;;;;5.33;2.67;;;;;;;8.23;98.53;97283.91;5017524;28;20221;-70
2021/10/27 07:59:27;;;;;;;5.50;3.83;;;;;;;8.02;98.13;97283.19;5018540;28;20675;-70
2021/10/27 08:01:55;;;;;;;3.47;2.00;;;;;;;8.10;99.38;97280.69;5014976;28;20236;-71
2021/10/27 08:04:22;;;;;;;5.30;2.43;;;;;;;8.00;99.29;97279.84;5018397;28;20297;-71
2021/10/27 08:06:49;;;;;;;4.97;2.53;;;;;;;8.10;99.79;97289.38;5017452;28;20319;-70
2021/10/27 08:09:16;;;;;;;5.80;2.83;;;;;;;8.36;98.74;97289.72;5019573;28;20217;-71
2021/10/27 08:11:43;;;;;;;2.60;1.83;;;;;;;8.28;99.29;97281.72;5017896;28;20655;-71
2021/10/27 08:14:11;;;;;;;4.77;2.93;;;;;;;8.49;98.72;97291.13;5018423;28;20216;-71
2021/10/27 08:16:38;;;;;;;10.80;3.00;;;;;;;8.25;97.67;97287.22;5017120;28;20253;-71
2021/10/27 08:19:05;;;;;;;5.17;3.40;;;;;;;8.26;100.00;97292.34;5018616;28;20210;-70
2021/10/27 08:21:32;;;;;;;9.20;3.20;;;;;;;8.19;100.00;97293.03;5017838;28;20376;-70
2021/10/27 08:23:59;;;;;;;6.47;3.30;;;;;;;8.22;99.92;97292.75;5018257;28;20209;-70
2021/10/27 08:26:26;;;;;;;4.97;3.70;;;;;;;8.07;100.00;97294.06;5016565;28;20232;-71
2021/10/27 08:28:55;;;;;;;7.70;3.67;;;;;;;8.26;99.16;97302.00;5017872;28;20209;-70
2021/10/27 08:31:36;;;;;;;6.83;3.33;;;;;;;8.38;99.24;97303.56;5017759;28;20202;-71
2021/10/27 08:34:14;;;;;;;4.77;2.60;;;;;;;8.63;99.12;97302.03;5018145;28;20202;-71
2021/10/27 08:36:42;;;;;;;4.40;3.00;;;;;;;8.95;98.09;97289.38;5016532;28;20864;-71
2021/10/27 08:39:09;;;;;;;6.37;3.93;;;;;;;8.76;97.36;97293.84;5018329;28;20512;-71
2021/10/27 08:41:39;;;;;;;5.93;3.43;;;;;;;8.86;97.37;97292.88;5017886;28;20268;-71
2021/10/27 08:44:06;;;;;;;7.57;4.17;;;;;;;8.89;97.35;97284.69;5017749;28;20213;-71
2021/10/27 08:46:34;;;;;;;6.67;3.00;;;;;;;8.71;97.77;97289.00;5016087;28;20635;-70
2021/10/27 08:49:04;;;;;;;5.03;2.90;;;;;;;8.92;97.88;97294.09;5018254;28;20202;-71
2021/10/27 08:51:31;;;;;;;6.13;3.53;;;;;;;8.45;98.58;97291.50;5017310;28;20351;-71
2021/10/27 08:53:59;;;;;;;5.57;3.80;;;;;;;8.94;97.36;97282.47;5018084;28;20268;-71
2021/10/27 08:56:27;;;;;;;4.50;3.17;;;;;;;8.83;97.58;97289.69;5016785;28;20248;-71
2021/10/27 08:58:58;;;;;;;4.87;3.30;;;;;;;8.95;97.18;97280.66;5017385;28;20217;-71
2021/10/27 09:01:34;;;;;;;7.77;4.27;;;;;;;9.22;96.45;97285.00;5013047;28;21125;-71
2021/10/27 09:04:18;;;;;;;6.57;4.00;;;;;;;9.27;96.87;97274.06;5016682;28;20197;-70
2021/10/27 09:07:04;;;;;;;4.67;2.63;;;;;;;9.49;97.57;97281.59;5016305;28;20225;-71
2021/10/27 09:09:50;;;;;;;5.70;3.43;;;;;;;9.57;98.00;97279.06;5017410;28;20664;-71
2021/10/27 09:35:13;;;;;;;8.60;4.60;;;;;;;10.12;95.66;97274.47;5016562;28;20291;-71
2021/10/27 09:38:02;;;;;;;6.50;3.70;;;;;;;10.12;97.67;97271.84;5016080;28;20221;-70
2021/10/27 09:40:51;;;;;;;8.67;4.63;;;;;;;10.09;96.73;97269.50;5016800;28;20854;-70
2021/10/27 09:43:46;;;;;;;6.20;3.23;;;;;;;10.28;96.43;97271.19;5016875;28;20225;-70
2021/10/27 09:46:45;;;;;;;9.73;4.60;;;;;;;10.23;95.14;97270.78;5015851;28;20233;-70
2021/10/27 10:05:49;;;;;;;10.37;4.20;;;;;;;10.50;96.68;97263.63;5015565;28;20220;-70
2021/10/27 10:08:16;;;;;;;6.73;3.73;;;;;;;10.68;95.71;97267.91;5016328;28;20216;-70
2021/10/27 10:10:46;;;;;;;6.07;3.43;;;;;;;10.72;94.75;97268.44;5016342;28;20210;-70
2021/10/27 10:13:12;;;;;;;5.80;3.90;;;;;;;10.57;94.81;97268.13;5015919;28;20355;-70
2021/10/27 10:15:40;;;;;;;6.60;4.50;;;;;;;10.69;94.59;97268.72;5016226;28;20202;-70
2021/10/27 10:18:08;;;;;;;7.93;4.13;;;;;;;10.61;94.32;97272.13;5020662;28;20201;-70
2021/10/27 10:20:37;;;;;;;8.50;4.57;;;;;;;10.76;93.08;97275.88;5019919;28;20201;-70
2021/10/27 10:23:22;;;;;;;5.37;3.77;;;;;;;10.84;94.99;97272.47;5020388;28;20225;-70
2021/10/27 10:25:52;;;;;;;10.47;4.13;;;;;;;10.56;97.13;97273.56;5019343;28;20216;-70
2021/10/27 10:28:20;;;;;;;9.87;3.60;;;;;;;10.66;97.21;97266.41;5020112;28;20923;-70
2021/10/27 10:30:54;;;;;;;10.77;5.97;;;;;;;10.87;98.88;97265.09;5020215;28;20747;-70
2021/10/27 10:33:34;;;;;;;7.23;3.67;;;;;;;10.73;95.75;97264.81;5020605;28;20212;-70
2021/10/27 10:36:03;;;;;;;11.30;4.77;;;;;;;10.77;96.30;97259.09;5018906;28;20477;-70
2021/10/27 10:38:59;;;;;;;10.87;4.33;;;;;;;11.41;95.36;97254.22;5020315;28;20202;-70
2021/10/27 10:41:49;;;;;;;6.77;3.77;;;;;;;11.45;97.01;97252.91;5019837;28;20204;-70
2021/10/27 10:59:29;;;;;;;9.40;4.70;;;;;;;12.28;91.34;97228.94;5019144;28;20208;-70
2021/10/27 11:02:47;;;;;;;14.37;5.00;;;;;;;11.96;94.22;97228.03;5015447;28;20210;-70
2021/10/27 11:24:46;;;;;;;9.43;4.27;;;;;;;13.04;87.38;97198.53;5019006;28;20259;-70
2021/10/27 11:38:33;;;;;;;6.90;3.80;;;;;;;12.92;88.45;97176.88;5018596;28;20438;-70
2021/10/27 11:41:09;;;;;;;7.50;4.33;;;;;;;12.65;89.52;97178.22;5018705;28;20549;-70
2021/10/27 11:43:54;;;;;;;8.53;4.17;;;;;;;13.01;88.53;97170.56;5019494;28;20224;-70
2021/10/27 11:46:25;;;;;;;6.47;3.57;;;;;;;12.30;90.00;97168.00;5018095;28;20226;-71
2021/10/27 11:48:56;;;;;;;7.80;3.87;;;;;;;12.52;90.88;97172.59;5019089;28;20918;-70
2021/10/27 11:51:24;;;;;;;7.77;4.13;;;;;;;12.58;89.94;97162.19;5018571;28;20320;-70
2021/10/27 11:53:51;;;;;;;6.70;3.47;;;;;;;12.30;91.38;97160.06;5018160;28;20673;-70
2021/10/27 11:56:20;;;;;;;7.43;3.87;;;;;;;12.43;91.10;97155.91;5017906;28;20225;-71
2021/10/27 11:58:48;;;;;;;9.07;4.00;;;;;;;12.25;92.04;97155.25;5018464;28;20660;-70
2021/10/27 12:01:19;;;;;;;8.07;3.57;;;;;;;12.16;95.22;97144.88;5016480;28;20238;-70
2021/10/27 12:03:46;;;;;;;6.90;3.67;;;;;;;11.88;93.54;97145.34;5018373;28;20229;-70
2021/10/27 12:06:40;;;;;;;9.10;4.27;;;;;;;12.63;91.95;97143.19;5017707;28;20279;-71
2021/10/27 12:09:19;;;;;;;9.17;3.87;;;;;;;12.48;92.59;97137.75;5018240;28;20205;-70
2021/10/27 12:12:10;;;;;;;6.93;3.67;;;;;;;12.80;90.53;97129.75;5017688;28;20206;-70
2021/10/27 12:14:44;;;;;;;7.03;3.57;;;;;;;12.32;93.29;97132.47;5018444;28;20201;-70
2021/10/27 12:17:31;;;;;;;7.73;4.67;;;;;;;12.68;91.93;97120.53;5017503;28;20999;-70
2021/10/27 12:19:58;;;;;;;10.63;4.33;;;;;;;12.42;92.61;97119.06;5018060;28;20225;-70
2021/10/27 12:22:27;;;;;;;9.17;3.27;;;;;;;12.83;91.75;97118.84;5017446;28;20194;-70
2021/10/27 12:24:56;;;;;;;10.27;4.40;;;;;;;12.74;91.58;97111.94;5018721;28;20412;-71
2021/10/27 12:27:29;;;;;;;8.27;4.27;;;;;;;12.64;93.08;97105.16;5016312;28;20249;-70
2021/10/27 12:29:58;;;;;;;9.30;3.20;;;;;;;12.56;92.87;97103.34;5017331;28;20213;-70
2021/10/27 12:32:26;;;;;;;7.47;4.10;;;;;;;12.67;92.48;97103.00;5017730;28;20691;-70
2021/10/27 12:34:54;;;;;;;8.93;5.03;;;;;;;12.92;92.31;97094.06;5017768;28;20241;-71
2021/10/27 12:37:25;;;;;;;17.57;4.30;;;;;;;13.00;94.29;97091.38;5016728;28;20586;-70
2021/10/27 12:39:53;;;;;;;7.67;4.37;;;;;;;13.13;93.05;97089.00;5017575;28;20477;-70
2021/10/27 12:42:19;;;;;;;8.53;4.37;;;;;;;12.60;92.96;97083.53;5018243;28;20212;-71
2021/10/27 12:44:49;;;;;;;8.82;4.07;;;;;;;12.89;93.54;97078.50;5017529;28;20221;-70
2021/10/27 12:47:17;;;;;;;12.47;4.47;;;;;;;12.86;93.49;97076.22;5016755;28;20252;-70
2021/10/27 12:49:45;;;;;;;7.77;3.53;;;;;;;12.81;93.67;97071.38;5017524;28;20213;-70
2021/10/27 12:52:27;;;;;;;8.77;3.43;;;;;;;13.22;92.64;97070.25;5017544;28;20485;-70
2021/10/27 12:55:14;;;;;;;9.57;3.73;;;;;;;13.13;94.18;97073.13;5017572;28;20204;-70
2021/10/27 12:57:50;;;;;;;10.73;4.53;;;;;;;13.11;95.01;97064.53;5016843;28;20305;-70
2021/10/27 13:00:22;;;;;;;8.33;4.47;;;;;;;12.99;94.52;97066.72;5017072;28;20214;-70
2021/10/27 13:03:08;;;;;;;9.80;5.60;;;;;;;12.97;93.38;97063.44;5014812;28;20230;-70
2021/10/27 13:05:42;;;;;;;8.50;4.43;;;;;;;12.93;93.76;97050.72;5016471;28;20291;-70
2021/10/27 13:08:24;;;;;;;11.23;4.27;;;;;;;13.08;92.84;97054.28;5017610;28;20709;-71
2021/10/27 13:11:02;;;;;;;7.80;3.83;;;;;;;13.40;92.49;97054.94;5017027;28;20206;-70
2021/10/27 13:13:37;;;;;;;7.73;3.40;;;;;;;13.39;92.17;97054.13;5016873;28;20205;-71
2021/10/27 13:16:26;;;;;;;8.07;4.53;;;;;;;13.32;91.46;97051.53;5016481;28;20221;-70
2021/10/27 13:19:01;;;;;;;7.93;4.77;;;;;;;13.16;92.70;97056.91;5016942;28;20248;-71
2021/10/27 13:21:36;;;;;;;10.83;4.40;;;;;;;13.21;93.44;97051.91;5016841;28;20949;-71
2021/10/27 13:29:42;;;;;;;7.43;5.10;;;;;;;13.33;91.88;97039.91;5017153;28;20327;-70
2021/10/27 13:32:12;;;;;;;9.83;4.93;;;;;;;13.57;91.53;97040.63;5016919;28;20213;-70
2021/10/27 13:34:39;;;;;;;10.63;4.80;;;;;;;13.43;90.51;97042.19;5016830;28;20198;-70
2021/10/27 13:37:07;;;;;;;7.63;4.03;;;;;;;13.41;91.55;97041.50;5016398;28;20221;-70
2021/10/27 13:39:33;;;;;;;11.13;4.67;;;;;;;13.48;91.32;97047.78;5016653;28;20202;-70
2021/10/27 13:42:06;;;;;;;10.67;4.27;;;;;;;13.84;91.33;97042.75;5016373;28;20213;-72
2021/10/27 13:44:38;;;;;;;9.93;4.43;;;;;;;13.56;90.61;97039.78;5015707;28;20316;-70